sensor_id;sensor_type;location;lat;lon;timestamp;temperature;humidity
11280;DHT22;5696;50.928;6.960;2023-02-19T06:36:18;9.90;99.90
11280;DHT22;5696;50.928;6.960;2023-02-19T06:38:44;9.90;99.90
11280;DHT22;5696;50.928;6.960;2023-02-19T06:41:10;9.90;99.90
11280;DHT22;5696;50.928;6.960;2023-02-19T06:43:36;10.00;99.90
11280;DHT22;5696;50.928;6.960;2023-02-19T06:46:04;10.00;99.90
11280;DHT22;5696;50.928;6.960;2023-02-19T06:48:30;10.00;99.90
11280;DHT22;5696;50.928;6.960;2023-02-19T06:50:57;9.90;99.90
11280;DHT22;5696;50.928;6.960;2023-02-19T06:53:23;10.00;99.90
11280;DHT22;5696;50.928;6.960;2023-02-19T06:56:20;9.90;99.90
11280;DHT22;5696;50.928;6.960;2023-02-19T06:58:51;10.00;99.90
11280;DHT22;5696;50.928;6.960;2023-02-19T07:01:17;9.90;99.90
11280;DHT22;5696;50.928;6.960;2023-02-19T07:03:43;10.00;99.90
11280;DHT22;5696;50.928;6.960;2023-02-19T07:06:08;9.90;99.90
11280;DHT22;5696;50.928;6.960;2023-02-19T07:08:34;10.00;99.90
11280;DHT22;5696;50.928;6.960;2023-02-19T07:10:59;10.00;99.90
11280;DHT22;5696;50.928;6.960;2023-02-19T07:13:26;10.00;99.90
11280;DHT22;5696;50.928;6.960;2023-02-19T07:15:57;10.00;99.90
11280;DHT22;5696;50.928;6.960;2023-02-19T07:18:23;10.10;99.90
11280;DHT22;5696;50.928;6.960;2023-02-19T07:20:49;10.10;99.90
11280;DHT22;5696;50.928;6.960;2023-02-19T07:23:14;10.10;99.90
11280;DHT22;5696;50.928;6.960;2023-02-19T07:25:40;10.00;99.90
11280;DHT22;5696;50.928;6.960;2023-02-19T07:28:06;10.00;99.90
11280;DHT22;5696;50.928;6.960;2023-02-19T07:30:32;10.00;99.90
11280;DHT22;5696;50.928;6.960;2023-02-19T07:32:57;10.00;99.90
11280;DHT22;5696;50.928;6.960;2023-02-19T07:35:23;9.90;99.90
11280;DHT22;5696;50.928;6.960;2023-02-19T07:37:48;10.00;99.90
11280;DHT22;5696;50.928;6.960;2023-02-19T07:40:14;9.90;99.90
11280;DHT22;5696;50.928;6.960;2023-02-19T07:42:40;10.00;99.90
11280;DHT22;5696;50.928;6.960;2023-02-19T07:45:06;9.90;99.90
11280;DHT22;5696;50.928;6.960;2023-02-19T07:47:32;9.90;99.90
11280;DHT22;5696;50.928;6.960;2023-02-19T07:49:57;10.00;99.90
11280;DHT22;5696;50.928;6.960;2023-02-19T07:52:23;10.00;99.90
11280;DHT22;5696;50.928;6.960;2023-02-19T07:54:49;10.10;99.90
11280;DHT22;5696;50.928;6.960;2023-02-19T07:57:14;10.10;99.90
11280;DHT22;5696;50.928;6.960;2023-02-19T07:59:40;10.10;99.90
11280;DHT22;5696;50.928;6.960;2023-02-19T08:02:16;10.30;99.90
11280;DHT22;5696;50.928;6.960;2023-02-19T08:05:01;10.40;99.90
11280;DHT22;5696;50.928;6.960;2023-02-19T08:07:34;10.60;99.90
11280;DHT22;5696;50.928;6.960;2023-02-19T08:10:00;10.80;99.90
11280;DHT22;5696;50.928;6.960;2023-02-19T08:12:54;10.70;99.90
11280;DHT22;5696;50.928;6.960;2023-02-19T08:15:38;10.70;99.90
11280;DHT22;5696;50.928;6.960;2023-02-19T08:18:04;10.60;99.90
11280;DHT22;5696;50.928;6.960;2023-02-19T08:20:29;10.50;99.90
11280;DHT22;5696;50.928;6.960;2023-02-19T08:22:55;10.50;99.90
11280;DHT22;5696;50.928;6.960;2023-02-19T08:25:20;10.50;99.90
11280;DHT22;5696;50.928;6.960;2023-02-19T08:27:46;10.50;99.90
11280;DHT22;5696;50.928;6.960;2023-02-19T08:30:12;10.40;99.90
11280;DHT22;5696;50.928;6.960;2023-02-19T08:32:37;10.40;99.90
11280;DHT22;5696;50.928;6.960;2023-02-19T08:35:03;10.40;99.90
11280;DHT22;5696;50.928;6.960;2023-02-19T08:37:29;10.50;99.90
11280;DHT22;5696;50.928;6.960;2023-02-19T08:39:54;10.70;99.90
11280;DHT22;5696;50.928;6.960;2023-02-19T08:42:20;10.70;99.90
11280;DHT22;5696;50.928;6.960;2023-02-19T08:44:45;10.70;99.90
11280;DHT22;5696;50.928;6.960;2023-02-19T08:47:11;10.70;99.90
11280;DHT22;5696;50.928;6.960;2023-02-19T08:49:37;10.60;99.90
11280;DHT22;5696;50.928;6.960;2023-02-19T08:52:02;10.60;99.90
11280;DHT22;5696;50.928;6.960;2023-02-19T08:54:29;10.50;99.90
11280;DHT22;5696;50.928;6.960;2023-02-19T08:56:54;10.60;99.90
11280;DHT22;5696;50.928;6.960;2023-02-19T08:59:20;10.60;99.90
11280;DHT22;5696;50.928;6.960;2023-02-19T09:01:45;10.70;99.90
11280;DHT22;5696;50.928;6.960;2023-02-19T09:04:11;10.90;99.90
11280;DHT22;5696;50.928;6.960;2023-02-19T09:06:37;11.10;99.90
11280;DHT22;5696;50.928;6.960;2023-02-19T09:09:03;11.30;99.90
11280;DHT22;5696;50.928;6.960;2023-02-19T09:11:29;11.40;99.90
11280;DHT22;5696;50.928;6.960;2023-02-19T09:13:55;11.60;99.90
11280;DHT22;5696;50.928;6.960;2023-02-19T09:16:21;11.60;99.90
11280;DHT22;5696;50.928;6.960;2023-02-19T09:18:47;11.60;99.90
11280;DHT22;5696;50.928;6.960;2023-02-19T09:21:13;11.50;99.90
11280;DHT22;5696;50.928;6.960;2023-02-19T09:23:38;11.50;99.90
11280;DHT22;5696;50.928;6.960;2023-02-19T09:26:05;11.60;99.90
11280;DHT22;5696;50.928;6.960;2023-02-19T09:28:34;11.60;99.90
11280;DHT22;5696;50.928;6.960;2023-02-19T09:31:04;11.50;99.90
11280;DHT22;5696;50.928;6.960;2023-02-19T09:33:30;11.40;99.90
11280;DHT22;5696;50.928;6.960;2023-02-19T09:35:58;11.30;99.90
11280;DHT22;5696;50.928;6.960;2023-02-19T09:38:24;11.30;99.90
11280;DHT22;5696;50.928;6.960;2023-02-19T09:40:50;11.20;99.90
11280;DHT22;5696;50.928;6.960;2023-02-19T09:43:20;11.10;99.90
11280;DHT22;5696;50.928;6.960;2023-02-19T09:45:47;11.10;99.90
11280;DHT22;5696;50.928;6.960;2023-02-19T09:48:13;11.00;99.90
11280;DHT22;5696;50.928;6.960;2023-02-19T09:50:43;11.00;99.90
11280;DHT22;5696;50.928;6.960;2023-02-19T09:53:17;11.10;99.90
11280;DHT22;5696;50.928;6.960;2023-02-19T09:55:44;11.20;99.90
11280;DHT22;5696;50.928;6.960;2023-02-19T09:58:29;11.20;99.90
11280;DHT22;5696;50.928;6.960;2023-02-19T10:00:57;11.30;99.90
11280;DHT22;5696;50.928;6.960;2023-02-19T10:03:32;11.30;99.90
11280;DHT22;5696;50.928;6.960;2023-02-19T10:06:05;11.20;99.90
11280;DHT22;5696;50.928;6.960;2023-02-19T10:08:34;11.20;99.90
11280;DHT22;5696;50.928;6.960;2023-02-19T10:11:01;11.10;99.90
11280;DHT22;5696;50.928;6.960;2023-02-19T10:13:42;11.10;99.90
11280;DHT22;5696;50.928;6.960;2023-02-19T10:16:13;11.10;99.90
11280;DHT22;5696;50.928;6.960;2023-02-19T10:18:43;11.30;99.90
11280;DHT22;5696;50.928;6.960;2023-02-19T10:21:15;11.60;99.90
11280;DHT22;5696;50.928;6.960;2023-02-19T10:23:41;11.70;99.90
11280;DHT22;5696;50.928;6.960;2023-02-19T10:26:07;11.70;99.90
11280;DHT22;5696;50.928;6.960;2023-02-19T10:28:34;11.60;99.90
11280;DHT22;5696;50.928;6.960;2023-02-19T10:31:02;11.60;99.90
11280;DHT22;5696;50.928;6.960;2023-02-19T10:33:28;11.70;99.90
11280;DHT22;5696;50.928;6.960;2023-02-19T10:38:28;11.50;99.90
11280;DHT22;5696;50.928;6.960;2023-02-19T10:41:01;11.50;99.90
11280;DHT22;5696;50.928;6.960;2023-02-19T10:43:31;11.40;99.90
11280;DHT22;5696;50.928;6.960;2023-02-19T10:46:03;11.40;99.90
11280;DHT22;5696;50.928;6.960;2023-02-19T10:48:36;11.40;99.90
11280;DHT22;5696;50.928;6.960;2023-02-19T10:51:06;11.30;99.90
11280;DHT22;5696;50.928;6.960;2023-02-19T10:53:46;11.30;99.90
11280;DHT22;5696;50.928;6.960;2023-02-19T10:56:15;11.40;99.90
11280;DHT22;5696;50.928;6.960;2023-02-19T10:58:47;11.70;99.90
11280;DHT22;5696;50.928;6.960;2023-02-19T11:01:18;11.80;99.90
11280;DHT22;5696;50.928;6.960;2023-02-19T11:03:48;11.80;99.90
11280;DHT22;5696;50.928;6.960;2023-02-19T11:06:16;11.60;99.90
11280;DHT22;5696;50.928;6.960;2023-02-19T11:09:21;11.60;99.90
11280;DHT22;5696;50.928;6.960;2023-02-19T11:11:36;11.80;99.90
11280;DHT22;5696;50.928;6.960;2023-02-19T11:14:10;11.80;99.90
11280;DHT22;5696;50.928;6.960;2023-02-19T11:16:48;12.00;99.90
11280;DHT22;5696;50.928;6.960;2023-02-19T11:21:53;12.30;99.90
11280;DHT22;5696;50.928;6.960;2023-02-19T11:26:52;12.30;99.90
11280;DHT22;5696;50.928;6.960;2023-02-19T11:29:21;12.40;99.90
11280;DHT22;5696;50.928;6.960;2023-02-19T11:31:47;12.40;99.90
11280;DHT22;5696;50.928;6.960;2023-02-19T11:36:39;12.90;99.90
11280;DHT22;5696;50.928;6.960;2023-02-19T11:41:52;13.00;99.90
11280;DHT22;5696;50.928;6.960;2023-02-19T11:47:38;12.80;99.90
11280;DHT22;5696;50.928;6.960;2023-02-19T11:53:23;12.30;99.90
11280;DHT22;5696;50.928;6.960;2023-02-19T11:58:59;12.10;99.90
11280;DHT22;5696;50.928;6.960;2023-02-19T12:07:27;12.90;99.90
11280;DHT22;5696;50.928;6.960;2023-02-19T12:10:08;12.70;99.90
11280;DHT22;5696;50.928;6.960;2023-02-19T12:12:56;12.80;99.90
11280;DHT22;5696;50.928;6.960;2023-02-19T12:24:17;12.90;99.90
11280;DHT22;5696;50.928;6.960;2023-02-19T12:29:55;12.90;99.90
11280;DHT22;5696;50.928;6.960;2023-02-19T12:35:31;13.40;99.90
11280;DHT22;5696;50.928;6.960;2023-02-19T12:43:18;14.20;99.90
11280;DHT22;5696;50.928;6.960;2023-02-19T12:45:59;14.60;99.90
11280;DHT22;5696;50.928;6.960;2023-02-19T12:48:40;15.00;99.90
11280;DHT22;5696;50.928;6.960;2023-02-19T12:51:11;15.30;99.90
11280;DHT22;5696;50.928;6.960;2023-02-19T12:53:55;15.00;99.90
11280;DHT22;5696;50.928;6.960;2023-02-19T12:56:28;14.70;99.90
11280;DHT22;5696;50.928;6.960;2023-02-19T12:59:00;14.10;99.90
11280;DHT22;5696;50.928;6.960;2023-02-19T13:01:53;13.80;99.90
11280;DHT22;5696;50.928;6.960;2023-02-19T13:06:57;13.20;99.90
11280;DHT22;5696;50.928;6.960;2023-02-19T13:09:42;13.10;99.90
11280;DHT22;5696;50.928;6.960;2023-02-19T13:12:16;12.80;99.90
11280;DHT22;5696;50.928;6.960;2023-02-19T13:15:08;12.60;99.90
11280;DHT22;5696;50.928;6.960;2023-02-19T13:17:44;12.30;99.90
11280;DHT22;5696;50.928;6.960;2023-02-19T13:20:17;12.10;99.90
11280;DHT22;5696;50.928;6.960;2023-02-19T13:23:22;11.90;99.90
11280;DHT22;5696;50.928;6.960;2023-02-19T13:37:00;11.70;99.90
11280;DHT22;5696;50.928;6.960;2023-02-19T13:39:26;11.70;99.90
11280;DHT22;5696;50.928;6.960;2023-02-19T13:41:54;11.70;99.90
11280;DHT22;5696;50.928;6.960;2023-02-19T13:44:25;11.70;99.90
11280;DHT22;5696;50.928;6.960;2023-02-19T13:46:52;11.70;99.90
11280;DHT22;5696;50.928;6.960;2023-02-19T13:52:00;11.70;99.90
11280;DHT22;5696;50.928;6.960;2023-02-19T13:54:34;11.80;99.90
11280;DHT22;5696;50.928;6.960;2023-02-19T13:59:49;11.50;99.90
11280;DHT22;5696;50.928;6.960;2023-02-19T14:05:10;11.70;99.90
11280;DHT22;5696;50.928;6.960;2023-02-19T14:07:56;11.70;99.90
11280;DHT22;5696;50.928;6.960;2023-02-19T14:10:51;11.60;99.90
11280;DHT22;5696;50.928;6.960;2023-02-19T14:19:13;11.40;99.90
11280;DHT22;5696;50.928;6.960;2023-02-19T14:21:40;11.40;99.90
11280;DHT22;5696;50.928;6.960;2023-02-19T14:24:12;11.60;99.90
11280;DHT22;5696;50.928;6.960;2023-02-19T14:26:39;11.60;99.90
11280;DHT22;5696;50.928;6.960;2023-02-19T14:29:12;11.60;99.90
11280;DHT22;5696;50.928;6.960;2023-02-19T14:31:38;11.60;99.90
11280;DHT22;5696;50.928;6.960;2023-02-19T14:34:14;11.70;99.90
11280;DHT22;5696;50.928;6.960;2023-02-19T14:36:44;11.70;99.90
11280;DHT22;5696;50.928;6.960;2023-02-19T14:39:28;11.90;99.90
11280;DHT22;5696;50.928;6.960;2023-02-19T14:44:59;11.60;99.90
11280;DHT22;5696;50.928;6.960;2023-02-19T14:47:29;11.50;99.90
11280;DHT22;5696;50.928;6.960;2023-02-19T14:50:07;11.70;99.90
11280;DHT22;5696;50.928;6.960;2023-02-19T14:52:40;11.60;99.90
11280;DHT22;5696;50.928;6.960;2023-02-19T14:57:46;11.50;99.90
11280;DHT22;5696;50.928;6.960;2023-02-19T15:02:49;11.50;99.90
11280;DHT22;5696;50.928;6.960;2023-02-19T15:05:29;11.40;99.90
11280;DHT22;5696;50.928;6.960;2023-02-19T15:08:02;11.40;99.90
11280;DHT22;5696;50.928;6.960;2023-02-19T15:10:30;11.50;99.90
11280;DHT22;5696;50.928;6.960;2023-02-19T15:13:00;11.40;99.90
11280;DHT22;5696;50.928;6.960;2023-02-19T15:15:29;11.50;99.90
11280;DHT22;5696;50.928;6.960;2023-02-19T15:17:58;11.50;99.90
11280;DHT22;5696;50.928;6.960;2023-02-19T15:20:26;11.30;99.90
11280;DHT22;5696;50.928;6.960;2023-02-19T15:22:53;11.30;99.90
11280;DHT22;5696;50.928;6.960;2023-02-19T15:25:21;11.20;99.90
11280;DHT22;5696;50.928;6.960;2023-02-19T15:27:48;11.20;99.90
11280;DHT22;5696;50.928;6.960;2023-02-19T15:30:27;11.10;99.90
11280;DHT22;5696;50.928;6.960;2023-02-19T15:32:58;11.20;99.90
11280;DHT22;5696;50.928;6.960;2023-02-19T15:35:26;11.20;99.90
11280;DHT22;5696;50.928;6.960;2023-02-19T15:37:53;11.10;99.90
11280;DHT22;5696;50.928;6.960;2023-02-19T15:40:25;11.10;99.90
11280;DHT22;5696;50.928;6.960;2023-02-19T15:42:52;11.20;99.90
11280;DHT22;5696;50.928;6.960;2023-02-19T15:45:56;11.10;99.90
11280;DHT22;5696;50.928;6.960;2023-02-19T15:48:19;11.10;99.90
11280;DHT22;5696;50.928;6.960;2023-02-19T15:50:49;11.10;99.90
11280;DHT22;5696;50.928;6.960;2023-02-19T15:53:27;11.00;99.90
11280;DHT22;5696;50.928;6.960;2023-02-19T15:58:41;11.00;99.90
11280;DHT22;5696;50.928;6.960;2023-02-19T16:01:13;11.00;99.90
11280;DHT22;5696;50.928;6.960;2023-02-19T16:03:40;10.90;99.90
11280;DHT22;5696;50.928;6.960;2023-02-19T16:06:12;10.80;99.90
11280;DHT22;5696;50.928;6.960;2023-02-19T16:08:42;10.80;99.90
11280;DHT22;5696;50.928;6.960;2023-02-19T16:12:16;10.80;99.90
11280;DHT22;5696;50.928;6.960;2023-02-19T16:19:44;10.80;99.90
11280;DHT22;5696;50.928;6.960;2023-02-19T16:22:13;10.80;99.90
11280;DHT22;5696;50.928;6.960;2023-02-19T16:24:47;10.70;99.90
11280;DHT22;5696;50.928;6.960;2023-02-19T16:27:30;10.70;99.90
11280;DHT22;5696;50.928;6.960;2023-02-19T16:29:57;10.70;99.90
11280;DHT22;5696;50.928;6.960;2023-02-19T16:32:25;10.60;99.90
11280;DHT22;5696;50.928;6.960;2023-02-19T16:34:51;10.70;99.90
11280;DHT22;5696;50.928;6.960;2023-02-19T16:45:16;10.60;99.90
11280;DHT22;5696;50.928;6.960;2023-02-19T16:47:42;10.50;99.90
11280;DHT22;5696;50.928;6.960;2023-02-19T16:50:23;10.50;99.90
11280;DHT22;5696;50.928;6.960;2023-02-19T16:53:13;10.50;99.90
11280;DHT22;5696;50.928;6.960;2023-02-19T16:55:39;10.50;99.90
11280;DHT22;5696;50.928;6.960;2023-02-19T16:58:04;10.40;99.90
11280;DHT22;5696;50.928;6.960;2023-02-19T17:00:30;10.40;99.90
11280;DHT22;5696;50.928;6.960;2023-02-19T17:03:00;10.40;99.90
11280;DHT22;5696;50.928;6.960;2023-02-19T17:05:28;10.40;99.90
11280;DHT22;5696;50.928;6.960;2023-02-19T17:07:55;10.40;99.90
11280;DHT22;5696;50.928;6.960;2023-02-19T17:10:23;10.40;99.90
11280;DHT22;5696;50.928;6.960;2023-02-19T17:12:51;10.40;99.90
11280;DHT22;5696;50.928;6.960;2023-02-19T17:15:17;10.40;99.90
11280;DHT22;5696;50.928;6.960;2023-02-19T17:17:43;10.40;99.90
11280;DHT22;5696;50.928;6.960;2023-02-19T17:20:29;10.30;99.90
11280;DHT22;5696;50.928;6.960;2023-02-19T17:22:56;10.30;99.90
11280;DHT22;5696;50.928;6.960;2023-02-19T17:25:22;10.30;99.90
11280;DHT22;5696;50.928;6.960;2023-02-19T17:27:48;10.30;99.90
11280;DHT22;5696;50.928;6.960;2023-02-19T17:30:26;10.30;99.90
11280;DHT22;5696;50.928;6.960;2023-02-19T17:32:52;10.30;99.90
11280;DHT22;5696;50.928;6.960;2023-02-19T17:35:17;10.30;99.90
11280;DHT22;5696;50.928;6.960;2023-02-19T17:37:43;10.20;99.90
11280;DHT22;5696;50.928;6.960;2023-02-19T17:42:46;10.30;99.90
11280;DHT22;5696;50.928;6.960;2023-02-19T17:45:12;10.30;99.90
11280;DHT22;5696;50.928;6.960;2023-02-19T17:47:37;10.20;99.90
11280;DHT22;5696;50.928;6.960;2023-02-19T17:50:03;10.10;99.90
11280;DHT22;5696;50.928;6.960;2023-02-19T17:52:31;10.10;99.90
11280;DHT22;5696;50.928;6.960;2023-02-19T17:54:56;10.10;99.90
11280;DHT22;5696;50.928;6.960;2023-02-19T17:57:22;10.20;99.90
11280;DHT22;5696;50.928;6.960;2023-02-19T17:59:48;10.30;99.90
11280;DHT22;5696;50.928;6.960;2023-02-19T18:02:13;10.20;99.90
11280;DHT22;5696;50.928;6.960;2023-02-19T18:04:39;10.10;99.90
11280;DHT22;5696;50.928;6.960;2023-02-19T18:07:04;10.10;99.90
11280;DHT22;5696;50.928;6.960;2023-02-19T18:09:30;10.10;99.90
11280;DHT22;5696;50.928;6.960;2023-02-19T18:11:55;10.00;99.90
11280;DHT22;5696;50.928;6.960;2023-02-19T18:14:21;10.00;99.90
11280;DHT22;5696;50.928;6.960;2023-02-19T18:16:47;9.90;99.90
11280;DHT22;5696;50.928;6.960;2023-02-19T18:19:13;9.90;99.90
11280;DHT22;5696;50.928;6.960;2023-02-19T18:21:39;10.00;99.90
11280;DHT22;5696;50.928;6.960;2023-02-19T18:24:05;9.90;99.90
11280;DHT22;5696;50.928;6.960;2023-02-19T18:26:31;9.80;99.90
11280;DHT22;5696;50.928;6.960;2023-02-19T18:28:58;9.70;99.90
11280;DHT22;5696;50.928;6.960;2023-02-19T18:31:24;9.70;99.90
11280;DHT22;5696;50.928;6.960;2023-02-19T18:33:49;9.80;99.90
11280;DHT22;5696;50.928;6.960;2023-02-19T18:36:15;9.70;99.90
11280;DHT22;5696;50.928;6.960;2023-02-19T18:38:41;9.70;99.90
11280;DHT22;5696;50.928;6.960;2023-02-19T18:41:13;9.60;99.90
11280;DHT22;5696;50.928;6.960;2023-02-19T18:43:41;9.70;99.90
11280;DHT22;5696;50.928;6.960;2023-02-19T18:46:08;9.60;99.90
11280;DHT22;5696;50.928;6.960;2023-02-19T18:48:34;9.70;99.90
11280;DHT22;5696;50.928;6.960;2023-02-19T18:50:59;9.60;99.90
11280;DHT22;5696;50.928;6.960;2023-02-19T18:53:25;9.60;99.90
11280;DHT22;5696;50.928;6.960;2023-02-19T18:55:50;9.60;99.90
11280;DHT22;5696;50.928;6.960;2023-02-19T18:58:16;9.70;99.90
11280;DHT22;5696;50.928;6.960;2023-02-19T19:00:44;9.60;99.90
11280;DHT22;5696;50.928;6.960;2023-02-19T19:03:09;9.70;99.90
11280;DHT22;5696;50.928;6.960;2023-02-19T19:05:35;9.70;99.90
11280;DHT22;5696;50.928;6.960;2023-02-19T19:08:01;9.70;99.90
11280;DHT22;5696;50.928;6.960;2023-02-19T19:10:26;9.70;99.90
11280;DHT22;5696;50.928;6.960;2023-02-19T19:12:52;9.60;99.90
11280;DHT22;5696;50.928;6.960;2023-02-19T19:15:19;9.50;99.90
11280;DHT22;5696;50.928;6.960;2023-02-19T19:17:46;9.50;99.90
11280;DHT22;5696;50.928;6.960;2023-02-19T19:20:13;9.50;99.90
11280;DHT22;5696;50.928;6.960;2023-02-19T19:22:38;9.40;99.90
11280;DHT22;5696;50.928;6.960;2023-02-19T19:25:04;9.50;99.90
11280;DHT22;5696;50.928;6.960;2023-02-19T19:27:30;9.40;99.90
11280;DHT22;5696;50.928;6.960;2023-02-19T19:29:56;9.40;99.90
11280;DHT22;5696;50.928;6.960;2023-02-19T19:32:21;9.50;99.90
11280;DHT22;5696;50.928;6.960;2023-02-19T19:34:47;9.40;99.90
11280;DHT22;5696;50.928;6.960;2023-02-19T19:37:12;9.40;99.90
11280;DHT22;5696;50.928;6.960;2023-02-19T19:39:38;9.40;99.90
11280;DHT22;5696;50.928;6.960;2023-02-19T19:42:04;9.30;99.90
11280;DHT22;5696;50.928;6.960;2023-02-19T19:44:32;9.30;99.90
11280;DHT22;5696;50.928;6.960;2023-02-19T19:46:57;9.30;99.90
11280;DHT22;5696;50.928;6.960;2023-02-19T19:49:23;9.30;99.90
11280;DHT22;5696;50.928;6.960;2023-02-19T19:51:48;9.20;99.90
11280;DHT22;5696;50.928;6.960;2023-02-19T19:54:14;9.20;99.90
11280;DHT22;5696;50.928;6.960;2023-02-19T19:56:41;9.20;99.90
11280;DHT22;5696;50.928;6.960;2023-02-19T19:59:12;9.10;99.90
11280;DHT22;5696;50.928;6.960;2023-02-19T20:01:38;9.10;99.90
11280;DHT22;5696;50.928;6.960;2023-02-19T20:04:04;9.10;99.90
11280;DHT22;5696;50.928;6.960;2023-02-19T20:06:31;9.10;99.90
11280;DHT22;5696;50.928;6.960;2023-02-19T20:08:57;9.10;99.90
11280;DHT22;5696;50.928;6.960;2023-02-19T20:11:23;9.10;99.90
11280;DHT22;5696;50.928;6.960;2023-02-19T20:13:49;9.10;99.90
11280;DHT22;5696;50.928;6.960;2023-02-19T20:16:15;9.10;99.90
11280;DHT22;5696;50.928;6.960;2023-02-19T20:18:41;9.10;99.90
11280;DHT22;5696;50.928;6.960;2023-02-19T20:21:08;9.10;99.90
11280;DHT22;5696;50.928;6.960;2023-02-19T20:23:33;9.10;99.90
11280;DHT22;5696;50.928;6.960;2023-02-19T20:25:59;9.00;99.90
11280;DHT22;5696;50.928;6.960;2023-02-19T20:28:25;9.00;99.90
11280;DHT22;5696;50.928;6.960;2023-02-19T20:30:50;9.00;99.90
11280;DHT22;5696;50.928;6.960;2023-02-19T20:33:16;9.00;99.90
11280;DHT22;5696;50.928;6.960;2023-02-19T20:35:41;9.00;99.90
11280;DHT22;5696;50.928;6.960;2023-02-19T20:38:07;8.90;99.90
11280;DHT22;5696;50.928;6.960;2023-02-19T20:40:32;8.90;99.90
11280;DHT22;5696;50.928;6.960;2023-02-19T20:42:59;8.90;99.90
11280;DHT22;5696;50.928;6.960;2023-02-19T20:45:27;8.80;99.90
11280;DHT22;5696;50.928;6.960;2023-02-19T20:47:53;8.80;99.90
11280;DHT22;5696;50.928;6.960;2023-02-19T20:50:18;8.80;99.90
11280;DHT22;5696;50.928;6.960;2023-02-19T20:52:45;8.80;99.90
11280;DHT22;5696;50.928;6.960;2023-02-19T20:55:11;8.70;99.90
11280;DHT22;5696;50.928;6.960;2023-02-19T20:57:37;8.60;99.90
11280;DHT22;5696;50.928;6.960;2023-02-19T21:00:04;8.50;99.90
11280;DHT22;5696;50.928;6.960;2023-02-19T21:02:30;8.50;99.90
11280;DHT22;5696;50.928;6.960;2023-02-19T21:04:56;8.40;99.90
11280;DHT22;5696;50.928;6.960;2023-02-19T21:07:25;8.40;99.90
11280;DHT22;5696;50.928;6.960;2023-02-19T21:09:51;8.40;99.90
11280;DHT22;5696;50.928;6.960;2023-02-19T21:12:18;8.30;99.90
11280;DHT22;5696;50.928;6.960;2023-02-19T21:14:45;8.30;99.90
11280;DHT22;5696;50.928;6.960;2023-02-19T21:17:10;8.20;99.90
11280;DHT22;5696;50.928;6.960;2023-02-19T21:19:36;8.10;99.90
11280;DHT22;5696;50.928;6.960;2023-02-19T21:22:02;8.00;99.90
11280;DHT22;5696;50.928;6.960;2023-02-19T21:24:27;7.90;99.90
11280;DHT22;5696;50.928;6.960;2023-02-19T21:26:53;8.00;99.90
11280;DHT22;5696;50.928;6.960;2023-02-19T21:29:20;7.90;99.90
11280;DHT22;5696;50.928;6.960;2023-02-19T21:31:49;7.90;99.90
11280;DHT22;5696;50.928;6.960;2023-02-19T21:34:19;7.80;99.90
11280;DHT22;5696;50.928;6.960;2023-02-19T21:36:45;7.80;99.90
11280;DHT22;5696;50.928;6.960;2023-02-19T21:39:13;7.70;99.90
11280;DHT22;5696;50.928;6.960;2023-02-19T21:41:39;7.70;99.90
11280;DHT22;5696;50.928;6.960;2023-02-19T21:44:05;7.70;99.90
11280;DHT22;5696;50.928;6.960;2023-02-19T21:46:30;7.70;99.90
11280;DHT22;5696;50.928;6.960;2023-02-19T21:48:59;7.70;99.90
11280;DHT22;5696;50.928;6.960;2023-02-19T21:51:33;7.70;99.90
11280;DHT22;5696;50.928;6.960;2023-02-19T21:53:59;7.60;99.90
11280;DHT22;5696;50.928;6.960;2023-02-19T21:56:27;7.60;99.90
11280;DHT22;5696;50.928;6.960;2023-02-19T21:58:54;7.50;99.90
11280;DHT22;5696;50.928;6.960;2023-02-19T22:01:25;7.50;99.90
11280;DHT22;5696;50.928;6.960;2023-02-19T22:03:51;7.40;99.90
11280;DHT22;5696;50.928;6.960;2023-02-19T22:06:17;7.40;99.90
11280;DHT22;5696;50.928;6.960;2023-02-19T22:08:44;7.40;99.90
11280;DHT22;5696;50.928;6.960;2023-02-19T22:11:10;7.40;99.90
11280;DHT22;5696;50.928;6.960;2023-02-19T22:13:35;7.40;99.90
11280;DHT22;5696;50.928;6.960;2023-02-19T22:16:02;7.40;99.90
11280;DHT22;5696;50.928;6.960;2023-02-19T22:18:27;7.30;99.90
11280;DHT22;5696;50.928;6.960;2023-02-19T22:20:53;7.30;99.90
11280;DHT22;5696;50.928;6.960;2023-02-19T22:23:18;7.30;99.90
11280;DHT22;5696;50.928;6.960;2023-02-19T22:25:44;7.30;99.90
11280;DHT22;5696;50.928;6.960;2023-02-19T22:28:10;7.30;99.90
11280;DHT22;5696;50.928;6.960;2023-02-19T22:30:35;7.30;99.90
11280;DHT22;5696;50.928;6.960;2023-02-19T22:33:02;7.40;99.90
11280;DHT22;5696;50.928;6.960;2023-02-19T22:35:27;7.60;99.90
11280;DHT22;5696;50.928;6.960;2023-02-19T22:37:53;7.70;99.90
11280;DHT22;5696;50.928;6.960;2023-02-19T22:40:19;7.60;99.90
11280;DHT22;5696;50.928;6.960;2023-02-19T22:42:45;7.60;99.90
11280;DHT22;5696;50.928;6.960;2023-02-19T22:45:11;7.70;99.90
11280;DHT22;5696;50.928;6.960;2023-02-19T22:47:36;7.70;99.90
11280;DHT22;5696;50.928;6.960;2023-02-19T22:50:02;7.70;99.90
11280;DHT22;5696;50.928;6.960;2023-02-19T22:52:28;7.70;99.90
11280;DHT22;5696;50.928;6.960;2023-02-19T22:54:54;7.70;99.90
11280;DHT22;5696;50.928;6.960;2023-02-19T22:57:20;7.60;99.90
11280;DHT22;5696;50.928;6.960;2023-02-19T22:59:46;7.50;99.90
11280;DHT22;5696;50.928;6.960;2023-02-19T23:02:11;7.40;99.90
11280;DHT22;5696;50.928;6.960;2023-02-19T23:04:37;7.40;99.90
11280;DHT22;5696;50.928;6.960;2023-02-19T23:07:05;7.30;99.90
